createdAt,value
2018-12-05T00:01:31.618Z,3.20
2018-12-05T00:04:00.486Z,3.60
2018-12-05T00:06:28.469Z,3.60
2018-12-05T00:08:56.020Z,4.03
2018-12-05T00:11:23.648Z,3.53
2018-12-05T00:13:52.021Z,3.47
2018-12-05T00:16:20.124Z,3.77
2018-12-05T00:18:47.684Z,3.93
2018-12-05T00:21:18.728Z,3.80
2018-12-05T00:23:47.995Z,3.33
2018-12-05T00:26:15.553Z,3.40
2018-12-05T00:28:43.105Z,3.87
2018-12-05T00:31:10.662Z,4.10
2018-12-05T00:33:38.224Z,3.90
2018-12-05T00:36:05.772Z,3.80
2018-12-05T00:38:33.313Z,3.93
2018-12-05T00:41:01.314Z,4.03
2018-12-05T00:43:28.884Z,3.40
2018-12-05T00:45:56.443Z,4.03
2018-12-05T00:48:23.988Z,4.50
2018-12-05T00:50:51.540Z,4.47
2018-12-05T00:53:19.100Z,4.60
2018-12-05T00:55:46.652Z,4.33
2018-12-05T00:58:14.224Z,4.43
2018-12-05T01:00:45.077Z,4.17
2018-12-05T01:03:12.639Z,5.10
2018-12-05T01:05:40.914Z,4.87
2018-12-05T01:08:09.820Z,5.43
2018-12-05T01:10:38.284Z,4.73
2018-12-05T01:13:06.855Z,5.17
2018-12-05T01:15:35.348Z,5.27
2018-12-05T01:18:02.949Z,5.07
2018-12-05T01:20:31.019Z,5.33
2018-12-05T01:22:58.575Z,4.70
2018-12-05T01:25:26.119Z,4.87
2018-12-05T01:27:53.869Z,5.03
2018-12-05T01:30:22.436Z,5.47
2018-12-05T01:32:55.222Z,4.80
2018-12-05T01:35:22.797Z,5.53
2018-12-05T01:37:50.428Z,5.57
2018-12-05T01:40:18.589Z,5.80
2018-12-05T01:42:50.539Z,5.40
2018-12-05T01:45:20.965Z,5.80
2018-12-05T01:47:49.181Z,6.37
2018-12-05T01:50:17.124Z,7.07
2018-12-05T01:52:44.708Z,7.60
2018-12-05T01:55:12.263Z,7.20
2018-12-05T01:57:39.855Z,7.70
2018-12-05T02:00:07.440Z,6.87
2018-12-05T02:02:35.003Z,6.03
2018-12-05T02:05:02.561Z,6.40
2018-12-05T02:07:30.123Z,6.50
2018-12-05T02:09:57.699Z,5.30
2018-12-05T02:12:25.257Z,5.03
2018-12-05T02:14:52.828Z,5.80
2018-12-05T02:17:20.388Z,5.33
2018-12-05T02:19:47.963Z,5.30
2018-12-05T02:22:15.528Z,5.87
2018-12-05T02:24:43.161Z,5.43
2018-12-05T02:27:10.720Z,6.00
2018-12-05T02:29:44.129Z,5.63
2018-12-05T02:32:11.689Z,5.57
2018-12-05T02:34:39.253Z,7.13
2018-12-05T02:37:06.818Z,7.37
2018-12-05T02:39:34.407Z,7.23
2018-12-05T02:42:01.989Z,6.53
2018-12-05T02:44:29.636Z,7.10
2018-12-05T02:46:57.557Z,7.47
2018-12-05T02:49:25.305Z,7.80
2018-12-05T02:51:52.894Z,7.67
2018-12-05T02:54:20.521Z,7.60
2018-12-05T02:56:48.072Z,7.70
2018-12-05T02:59:15.624Z,7.90
2018-12-05T03:01:43.186Z,6.93
2018-12-05T03:04:10.766Z,8.83
2018-12-05T03:06:38.334Z,7.63
2018-12-05T03:09:07.465Z,9.20
2018-12-05T03:11:35.028Z,9.03
2018-12-05T03:14:02.580Z,8.53
2018-12-05T03:16:30.149Z,9.20
2018-12-05T03:18:57.726Z,9.57
2018-12-05T03:21:25.289Z,9.43
2018-12-05T03:23:52.964Z,9.00
2018-12-05T03:26:20.545Z,8.40
2018-12-05T03:28:48.120Z,9.17
2018-12-05T03:31:15.691Z,8.97
2018-12-05T03:33:43.284Z,9.23
2018-12-05T03:36:10.968Z,9.73
2018-12-05T03:38:38.533Z,10.50
2018-12-05T03:41:06.105Z,9.70
2018-12-05T03:43:33.696Z,10.87
2018-12-05T03:46:01.264Z,10.47
2018-12-05T03:48:28.841Z,10.30
2018-12-05T03:50:56.438Z,9.83
2018-12-05T03:53:24.012Z,9.23
2018-12-05T03:55:51.570Z,9.87
2018-12-05T03:58:19.132Z,10.00
2018-12-05T04:00:46.786Z,9.10
2018-12-05T04:03:14.445Z,9.80
2018-12-05T04:05:42.005Z,8.50
2018-12-05T04:08:09.560Z,8.77
2018-12-05T04:10:37.320Z,8.80
2018-12-05T04:13:04.908Z,8.40
2018-12-05T04:15:32.487Z,9.03
2018-12-05T04:18:00.050Z,8.50
2018-12-05T04:20:27.624Z,8.03
2018-12-05T04:22:55.788Z,8.50
2018-12-05T04:25:23.365Z,8.07
2018-12-05T04:27:50.928Z,8.90
2018-12-05T04:30:18.505Z,7.97
2018-12-05T04:32:46.065Z,8.50
2018-12-05T04:35:13.674Z,9.17
2018-12-05T04:37:41.488Z,9.17
2018-12-05T04:40:09.043Z,8.33
2018-12-05T04:42:36.625Z,8.87
2018-12-05T04:45:04.272Z,8.33
2018-12-05T04:47:31.836Z,9.20
2018-12-05T04:49:59.411Z,8.83
2018-12-05T04:52:26.972Z,8.93
2018-12-05T04:54:54.532Z,8.83
2018-12-05T04:57:22.096Z,9.47
2018-12-05T04:59:49.662Z,9.90
2018-12-05T05:02:17.232Z,9.80
2018-12-05T05:04:44.792Z,11.00
2018-12-05T05:07:12.357Z,10.57
2018-12-05T05:09:39.920Z,9.80
2018-12-05T05:12:07.496Z,9.47
2018-12-05T05:14:35.416Z,9.57
2018-12-05T05:17:02.992Z,10.63
2018-12-05T05:19:30.550Z,9.57
2018-12-05T05:21:58.111Z,9.70
2018-12-05T05:24:25.700Z,9.37
2018-12-05T05:26:53.264Z,9.27
2018-12-05T05:29:20.836Z,9.17
2018-12-05T05:31:48.389Z,9.10
2018-12-05T05:34:15.945Z,9.10
2018-12-05T05:36:43.524Z,8.90
2018-12-05T05:39:11.076Z,8.33
2018-12-05T05:41:38.657Z,8.80
2018-12-05T05:44:06.217Z,8.93
2018-12-05T05:46:33.808Z,9.10
2018-12-05T05:49:01.368Z,8.13
2018-12-05T05:51:29.440Z,8.40
2018-12-05T05:53:57.000Z,9.00
2018-12-05T05:56:24.551Z,7.70
2018-12-05T05:58:52.120Z,8.47
2018-12-05T06:01:19.677Z,8.37
2018-12-05T06:03:47.245Z,8.07
2018-12-05T06:06:14.839Z,8.73
2018-12-05T06:08:42.406Z,8.20
2018-12-05T06:11:09.960Z,8.33
2018-12-05T06:13:37.553Z,8.20
2018-12-05T06:16:05.119Z,8.63
2018-12-05T06:18:32.736Z,8.53
2018-12-05T06:21:00.298Z,8.30
2018-12-05T06:23:27.868Z,9.27
2018-12-05T06:25:55.423Z,8.47
2018-12-05T06:28:22.981Z,8.87
2018-12-05T06:30:50.548Z,8.67
2018-12-05T06:33:18.102Z,8.73
2018-12-05T06:35:45.661Z,8.57
2018-12-05T06:38:13.227Z,8.43
2018-12-05T06:40:40.789Z,8.33
2018-12-05T06:43:08.372Z,8.40
2018-12-05T06:45:35.924Z,8.90
2018-12-05T06:48:03.498Z,9.57
2018-12-05T06:50:31.108Z,9.60
2018-12-05T06:52:58.728Z,9.40
2018-12-05T06:55:26.289Z,9.03
2018-12-05T06:57:53.859Z,9.43
2018-12-05T07:00:21.444Z,9.57
2018-12-05T07:02:49.027Z,9.37
2018-12-05T07:05:16.699Z,9.40
2018-12-05T07:07:44.284Z,9.40
2018-12-05T07:10:11.852Z,10.03
2018-12-05T07:12:39.426Z,10.53
2018-12-05T07:15:06.986Z,10.47
2018-12-05T07:17:34.553Z,10.07
2018-12-05T07:20:02.149Z,11.60
2018-12-05T07:22:29.701Z,10.43
2018-12-05T07:24:57.327Z,9.47
2018-12-05T07:27:24.908Z,10.80
2018-12-05T07:29:52.474Z,9.73
2018-12-05T07:32:20.052Z,10.43
2018-12-05T07:34:47.801Z,11.10
2018-12-05T07:37:15.382Z,9.50
2018-12-05T07:39:42.950Z,9.50
2018-12-05T07:42:10.849Z,10.53
2018-12-05T07:44:38.461Z,10.10
2018-12-05T07:47:06.021Z,10.10
2018-12-05T07:49:33.593Z,10.83
2018-12-05T07:52:01.183Z,9.40
2018-12-05T07:54:28.741Z,10.00
2018-12-05T07:56:56.321Z,9.73
2018-12-05T07:59:23.950Z,10.83
2018-12-05T08:01:51.628Z,11.30
2018-12-05T08:04:19.532Z,10.53
2018-12-05T08:06:47.093Z,11.03
2018-12-05T08:09:14.657Z,10.70
2018-12-05T08:11:42.217Z,10.03
2018-12-05T08:14:09.825Z,10.73
2018-12-05T08:16:37.392Z,11.03
2018-12-05T08:19:05.055Z,12.30
2018-12-05T08:21:32.633Z,12.17
2018-12-05T08:24:00.245Z,13.00
2018-12-05T08:26:27.818Z,11.23
2018-12-05T08:28:55.374Z,10.57
2018-12-05T08:31:22.934Z,12.50
2018-12-05T08:33:50.532Z,11.90
2018-12-05T08:36:18.085Z,11.03
2018-12-05T08:38:45.645Z,11.30
2018-12-05T08:41:13.246Z,11.20
2018-12-05T08:43:40.813Z,10.47
2018-12-05T08:46:08.382Z,10.53
2018-12-05T08:48:35.956Z,11.30
2018-12-05T08:51:03.528Z,10.63
2018-12-05T08:53:31.139Z,11.17
2018-12-05T08:55:58.695Z,11.37
2018-12-05T08:58:26.313Z,10.70
2018-12-05T09:00:53.873Z,11.17
2018-12-05T09:03:21.475Z,11.27
2018-12-05T09:05:49.142Z,10.67
2018-12-05T09:08:17.237Z,11.63
2018-12-05T09:10:44.799Z,11.63
2018-12-05T09:13:12.357Z,10.87
2018-12-05T09:15:39.912Z,11.27
2018-12-05T09:18:07.468Z,11.73
2018-12-05T09:20:35.013Z,11.33
2018-12-05T09:23:02.568Z,11.50
2018-12-05T09:25:30.184Z,11.77
2018-12-05T09:27:57.740Z,11.37
2018-12-05T09:30:25.296Z,11.13
2018-12-05T09:32:52.860Z,11.10
2018-12-05T09:35:20.769Z,11.73
2018-12-05T09:37:49.136Z,11.87
2018-12-05T09:40:16.708Z,12.53
2018-12-05T09:42:44.279Z,11.33
2018-12-05T09:45:12.473Z,11.70
2018-12-05T09:47:40.042Z,11.23
2018-12-05T09:50:07.620Z,10.57
2018-12-05T09:52:35.195Z,10.97
2018-12-05T09:55:03.065Z,10.87
2018-12-05T09:57:30.620Z,10.80
2018-12-05T09:59:58.901Z,10.63
2018-12-05T10:02:26.526Z,10.70
2018-12-05T10:04:55.716Z,11.03
2018-12-05T10:07:23.964Z,10.97
2018-12-05T10:09:54.249Z,10.97
2018-12-05T10:12:21.972Z,11.47
2018-12-05T10:14:53.589Z,10.77
2018-12-05T10:17:22.812Z,10.60
2018-12-05T10:19:50.377Z,9.73
2018-12-05T10:22:17.954Z,9.27
2018-12-05T10:24:48.798Z,9.80
2018-12-05T10:27:16.376Z,10.00
2018-12-05T10:29:44.784Z,9.93
2018-12-05T10:32:12.364Z,9.00
2018-12-05T10:34:40.756Z,8.93
2018-12-05T10:37:08.320Z,8.90
2018-12-05T10:39:35.876Z,8.87
2018-12-05T10:42:03.438Z,8.67
2018-12-05T10:44:31.001Z,8.73
2018-12-05T10:46:58.568Z,8.63
2018-12-05T10:49:26.153Z,8.27
2018-12-05T10:51:53.715Z,8.40
2018-12-05T10:54:21.273Z,8.23
2018-12-05T10:56:48.858Z,8.27
2018-12-05T10:59:16.408Z,8.60
2018-12-05T11:01:49.954Z,7.87
2018-12-05T11:04:20.573Z,7.93
2018-12-05T11:06:53.899Z,7.57
2018-12-05T11:09:27.252Z,8.63
2018-12-05T11:12:00.630Z,7.50
2018-12-05T11:14:34.928Z,8.17
2018-12-05T11:17:08.267Z,7.97
2018-12-05T11:19:41.467Z,7.70
2018-12-05T11:22:10.992Z,8.37
2018-12-05T11:24:38.624Z,7.57
2018-12-05T11:27:06.193Z,8.23
2018-12-05T11:29:33.827Z,8.73
2018-12-05T11:32:01.493Z,8.50
2018-12-05T11:34:29.085Z,9.67
2018-12-05T11:36:56.656Z,9.23
2018-12-05T11:39:24.208Z,9.63
2018-12-05T11:41:51.768Z,10.33
2018-12-05T11:44:19.333Z,10.77
2018-12-05T11:46:48.511Z,11.67
2018-12-05T11:49:16.269Z,11.53
2018-12-05T11:51:43.832Z,12.43
2018-12-05T11:54:11.399Z,13.23
2018-12-05T11:56:38.952Z,13.03
2018-12-05T11:59:06.499Z,12.60
2018-12-05T12:01:34.051Z,13.03
2018-12-05T12:04:01.610Z,13.20
2018-12-05T12:06:29.161Z,12.27
2018-12-05T12:08:56.719Z,13.37
2018-12-05T12:11:24.276Z,13.83
2018-12-05T12:13:51.837Z,14.13
2018-12-05T12:16:19.418Z,14.27
2018-12-05T12:18:47.056Z,14.00
2018-12-05T12:21:15.234Z,14.20
2018-12-05T12:23:44.001Z,14.20
2018-12-05T12:26:11.558Z,14.67
2018-12-05T12:28:39.175Z,14.20
2018-12-05T12:31:06.724Z,14.57
2018-12-05T12:33:34.281Z,14.30
2018-12-05T12:36:01.834Z,16.47
2018-12-05T12:38:29.388Z,15.93
2018-12-05T12:40:56.949Z,14.53
2018-12-05T12:43:24.512Z,16.00
2018-12-05T12:45:52.074Z,17.67
2018-12-05T12:48:19.652Z,15.00
2018-12-05T12:50:47.203Z,16.30
2018-12-05T12:53:14.753Z,15.87
2018-12-05T12:55:42.305Z,16.40
2018-12-05T12:58:09.872Z,16.70
2018-12-05T13:00:37.426Z,16.83
2018-12-05T13:03:04.996Z,16.97
2018-12-05T13:05:32.553Z,17.03
2018-12-05T13:08:00.123Z,17.70
2018-12-05T13:10:27.680Z,19.73
2018-12-05T13:12:55.346Z,18.30
2018-12-05T13:15:22.928Z,18.93
2018-12-05T13:17:50.484Z,18.40
2018-12-05T13:20:18.060Z,19.87
2018-12-05T13:22:45.616Z,18.03
2018-12-05T13:25:13.492Z,19.00
2018-12-05T13:27:41.047Z,20.60
2018-12-05T13:30:08.608Z,20.33
2018-12-05T13:32:36.181Z,20.77
2018-12-05T13:35:03.908Z,21.90
2018-12-05T13:37:31.485Z,21.13
2018-12-05T13:39:59.999Z,21.43
2018-12-05T13:42:27.720Z,22.23
2018-12-05T13:44:55.283Z,22.67
2018-12-05T13:47:22.837Z,22.60
2018-12-05T13:49:50.400Z,22.13
2018-12-05T13:52:19.319Z,23.87
2018-12-05T13:54:47.232Z,22.90
2018-12-05T13:57:14.792Z,24.23
2018-12-05T13:59:42.348Z,22.90
2018-12-05T14:02:09.902Z,24.30
2018-12-05T14:04:37.456Z,22.70
2018-12-05T14:07:05.016Z,22.30
2018-12-05T14:09:32.577Z,23.20
2018-12-05T14:12:00.467Z,23.60
2018-12-05T14:14:28.248Z,23.63
2018-12-05T14:16:55.869Z,24.40
2018-12-05T14:19:23.469Z,23.63
2018-12-05T14:21:51.264Z,21.83
2018-12-05T14:24:18.823Z,22.83
2018-12-05T14:26:49.350Z,19.53
2018-12-05T14:29:17.020Z,20.43
2018-12-05T14:31:44.578Z,20.90
2018-12-05T14:34:12.178Z,21.67
2018-12-05T14:36:39.735Z,21.70
2018-12-05T14:39:07.299Z,22.00
2018-12-05T14:41:34.858Z,19.97
2018-12-05T14:44:02.417Z,18.97
2018-12-05T14:46:29.973Z,21.48
2018-12-05T14:48:57.537Z,18.57
2018-12-05T14:51:25.090Z,18.80
2018-12-05T14:53:52.654Z,17.87
2018-12-05T14:56:20.224Z,18.50
2018-12-05T14:58:47.777Z,17.20
2018-12-05T15:01:15.327Z,17.20
2018-12-05T15:03:42.884Z,16.63
2018-12-05T15:06:10.438Z,18.27
2018-12-05T15:08:37.995Z,16.97
2018-12-05T15:11:05.574Z,17.97
2018-12-05T15:13:33.134Z,16.70
2018-12-05T15:16:00.857Z,16.43
2018-12-05T15:18:28.664Z,16.37
2018-12-05T15:20:56.226Z,16.90
2018-12-05T15:23:23.776Z,17.43
2018-12-05T15:25:51.344Z,17.97
2018-12-05T15:28:18.904Z,18.10
2018-12-05T15:30:46.479Z,17.10
2018-12-05T15:33:14.044Z,17.87
2018-12-05T15:35:41.601Z,17.40
2018-12-05T15:38:09.202Z,19.03
2018-12-05T15:40:37.001Z,17.13
2018-12-05T15:43:04.569Z,17.63
2018-12-05T15:45:32.843Z,16.57
2018-12-05T15:48:00.401Z,17.23
2018-12-05T15:50:27.968Z,15.63
2018-12-05T15:52:55.565Z,16.97
2018-12-05T15:55:23.136Z,15.00
2018-12-05T15:57:50.760Z,15.63
2018-12-05T16:00:18.342Z,14.10
2018-12-05T16:02:45.905Z,14.67
2018-12-05T16:05:14.041Z,14.47
2018-12-05T16:07:41.608Z,14.43
2018-12-05T16:10:09.383Z,15.13
2018-12-05T16:12:36.937Z,13.97
2018-12-05T16:15:04.579Z,14.27
2018-12-05T16:17:32.164Z,13.67
2018-12-05T16:19:59.761Z,13.60
2018-12-05T16:22:27.326Z,15.00
2018-12-05T16:24:55.353Z,14.00
2018-12-05T16:27:22.915Z,14.27
2018-12-05T16:29:50.542Z,13.70
2018-12-05T16:32:18.103Z,13.60
2018-12-05T16:34:45.664Z,13.30
2018-12-05T16:37:13.238Z,12.27
2018-12-05T16:39:40.804Z,13.00
2018-12-05T16:42:08.364Z,13.70
2018-12-05T16:44:35.918Z,13.13
2018-12-05T16:47:03.480Z,12.67
2018-12-05T16:49:31.037Z,13.23
2018-12-05T16:51:58.600Z,13.07
2018-12-05T16:54:26.425Z,12.90
2018-12-05T16:56:53.995Z,12.13
2018-12-05T16:59:21.559Z,12.83
2018-12-05T17:01:49.130Z,11.57
2018-12-05T17:04:17.360Z,12.70
2018-12-05T17:06:44.949Z,11.80
2018-12-05T17:09:12.937Z,12.77
2018-12-05T17:11:41.432Z,12.80
2018-12-05T17:14:09.738Z,11.10
2018-12-05T17:16:37.312Z,12.10
2018-12-05T17:19:05.671Z,12.80
2018-12-05T17:21:33.255Z,12.13
2018-12-05T17:24:00.818Z,12.77
2018-12-05T17:26:29.290Z,12.83
2018-12-05T17:28:56.869Z,12.50
2018-12-05T17:31:25.336Z,12.70
2018-12-05T17:33:52.896Z,12.13
2018-12-05T17:36:20.460Z,12.30
2018-12-05T17:38:48.034Z,12.57
2018-12-05T17:41:15.603Z,11.50
2018-12-05T17:43:43.599Z,11.63
2018-12-05T17:46:11.573Z,11.83
2018-12-05T17:48:39.811Z,11.87
2018-12-05T17:51:07.394Z,11.43
2018-12-05T17:53:35.949Z,11.20
2018-12-05T17:56:03.519Z,10.53
2018-12-05T17:58:31.087Z,10.57
2018-12-05T18:00:59.084Z,13.53
2018-12-05T18:03:26.645Z,12.27
2018-12-05T18:05:54.206Z,11.60
2018-12-05T18:08:21.760Z,11.10
2018-12-05T18:10:49.323Z,12.60
2018-12-05T18:13:17.060Z,11.97
2018-12-05T18:15:44.743Z,13.50
2018-12-05T18:18:12.301Z,11.43
2018-12-05T18:20:39.877Z,12.13
2018-12-05T18:23:07.464Z,11.33
2018-12-05T18:25:35.061Z,11.73
2018-12-05T18:28:02.617Z,12.27
2018-12-05T18:30:30.176Z,9.90
2018-12-05T18:32:57.767Z,11.23
2018-12-05T18:35:26.264Z,11.70
2018-12-05T18:37:53.870Z,13.40
2018-12-05T18:40:21.438Z,11.03
2018-12-05T18:48:02.509Z,11.37
2018-12-05T18:50:30.085Z,11.63
2018-12-05T18:52:57.636Z,11.47
2018-12-05T18:55:25.580Z,10.97
2018-12-05T18:57:53.148Z,10.50
2018-12-05T19:00:20.731Z,10.50
2018-12-05T19:02:48.298Z,10.60
2018-12-05T19:05:15.884Z,10.73
2018-12-05T19:07:43.439Z,10.93
2018-12-05T19:10:11.036Z,11.13
2018-12-05T19:12:38.597Z,10.80
2018-12-05T19:15:06.164Z,11.33
2018-12-05T19:17:33.716Z,11.47
2018-12-05T19:20:01.272Z,12.27
2018-12-05T19:22:29.571Z,11.20
2018-12-05T19:24:58.082Z,12.03
2018-12-05T19:27:25.645Z,12.07
2018-12-05T19:29:53.239Z,12.23
2018-12-05T19:32:20.801Z,12.03
2018-12-05T19:34:49.216Z,11.47
2018-12-05T19:37:17.623Z,11.00
2018-12-05T19:39:45.643Z,11.20
2018-12-05T19:42:13.203Z,10.17
2018-12-05T19:44:40.772Z,10.57
2018-12-05T19:47:08.337Z,11.53
2018-12-05T19:49:35.884Z,10.87
2018-12-05T19:52:03.515Z,10.13
2018-12-05T19:54:31.080Z,11.73
2018-12-05T19:56:58.640Z,10.40
2018-12-05T19:59:27.128Z,10.97
2018-12-05T20:01:54.689Z,10.13
2018-12-05T20:04:22.258Z,9.90
2018-12-05T20:06:49.812Z,9.37
2018-12-05T20:09:17.371Z,9.43
2018-12-05T20:11:44.935Z,9.80
2018-12-05T20:14:15.423Z,10.87
2018-12-05T20:16:42.992Z,9.80
2018-12-05T20:19:10.564Z,8.67
2018-12-05T20:21:38.792Z,10.10
2018-12-05T20:24:07.173Z,9.03
2018-12-05T20:26:35.613Z,9.20
2018-12-05T20:29:03.180Z,9.20
2018-12-05T20:31:30.740Z,8.10
2018-12-05T20:33:58.303Z,8.87
2018-12-05T20:36:25.856Z,8.00
2018-12-05T20:38:53.432Z,8.53
2018-12-05T20:41:20.993Z,8.80
2018-12-05T20:43:48.545Z,7.63
2018-12-05T20:46:16.828Z,7.87
2018-12-05T20:48:44.429Z,7.70
2018-12-05T20:51:11.992Z,8.27
2018-12-05T20:53:39.544Z,8.50
2018-12-05T20:56:07.104Z,9.30
2018-12-05T20:58:34.664Z,8.70
2018-12-05T21:01:02.220Z,8.47
2018-12-05T21:03:29.774Z,8.47
2018-12-05T21:05:58.348Z,8.87
2018-12-05T21:08:25.908Z,8.07
2018-12-05T21:10:53.509Z,7.73
2018-12-05T21:13:21.058Z,8.17
2018-12-05T21:15:48.618Z,7.87
2018-12-05T21:18:17.187Z,7.87
2018-12-05T21:20:45.557Z,7.97
2018-12-05T21:23:19.977Z,7.70
2018-12-05T21:25:47.537Z,7.67
2018-12-05T21:28:21.879Z,8.27
2018-12-05T21:30:50.555Z,6.87
2018-12-05T21:33:18.192Z,7.90
2018-12-05T21:35:48.245Z,7.60
2018-12-05T21:38:18.444Z,7.80
2018-12-05T21:40:48.179Z,8.00
2018-12-05T21:43:15.738Z,7.40
2018-12-05T21:45:43.371Z,9.30
2018-12-05T21:48:11.401Z,8.13
2018-12-05T21:50:40.009Z,7.87
2018-12-05T21:55:42.439Z,8.77
2018-12-05T21:58:09.998Z,7.57
2018-12-05T22:00:38.709Z,8.33
2018-12-05T22:03:07.685Z,8.93
2018-12-05T22:05:35.331Z,7.70
2018-12-05T22:08:03.682Z,7.77
2018-12-05T22:10:31.887Z,8.63
2018-12-05T22:12:59.450Z,10.00
2018-12-05T22:15:27.588Z,8.40
2018-12-05T22:17:56.652Z,8.40
2018-12-05T22:20:24.208Z,7.87
2018-12-05T22:22:52.012Z,8.30
2018-12-05T22:25:20.112Z,8.03
2018-12-05T22:27:47.666Z,7.90
2018-12-05T22:30:15.230Z,8.50
2018-12-05T22:32:44.501Z,8.57
2018-12-05T22:35:12.099Z,9.50
2018-12-05T22:37:40.731Z,9.60
2018-12-05T22:45:17.055Z,9.50
2018-12-05T22:47:44.618Z,10.13
2018-12-05T22:50:14.313Z,9.47
2018-12-05T22:52:42.794Z,9.63
2018-12-05T22:55:10.399Z,10.37
2018-12-05T22:57:37.961Z,10.70
2018-12-05T23:00:07.419Z,10.90
2018-12-05T23:02:34.974Z,11.10
2018-12-05T23:05:02.594Z,11.60
2018-12-05T23:07:31.310Z,10.83
2018-12-05T23:10:03.762Z,11.30
2018-12-05T23:12:31.328Z,12.47
2018-12-05T23:14:58.889Z,13.13
2018-12-05T23:17:26.443Z,12.13
2018-12-05T23:19:54.005Z,12.20
2018-12-05T23:22:25.085Z,14.07
2018-12-05T23:24:52.715Z,14.10
2018-12-05T23:27:22.864Z,14.43
2018-12-05T23:32:27.804Z,15.37
2018-12-05T23:35:03.048Z,15.20
2018-12-05T23:37:31.140Z,14.07
2018-12-05T23:39:58.736Z,15.03
2018-12-05T23:42:29.076Z,14.03
2018-12-05T23:45:00.746Z,13.73
2018-12-05T23:47:29.762Z,14.83
2018-12-05T23:50:02.028Z,14.83
2018-12-05T23:52:29.621Z,14.73
2018-12-05T23:54:57.628Z,14.27
2018-12-05T23:57:25.985Z,13.00
